createdAt,value
2022-07-26T00:00:43.034Z,9.30
2022-07-26T00:01:43.035Z,9.00
2022-07-26T00:02:47.952Z,8.90
2022-07-26T00:03:43.940Z,8.90
2022-07-26T00:04:42.932Z,8.40
2022-07-26T00:05:42.919Z,8.80
2022-07-26T00:06:42.920Z,8.50
2022-07-26T00:07:42.889Z,9.30
2022-07-26T00:08:42.919Z,8.90
2022-07-26T00:09:47.993Z,9.20
2022-07-26T00:10:43.847Z,9.40
2022-07-26T00:11:42.827Z,9.20
2022-07-26T00:12:42.838Z,9.30
2022-07-26T00:13:42.809Z,9.20
2022-07-26T00:14:42.800Z,9.50
2022-07-26T00:15:42.790Z,9.40
2022-07-26T00:16:42.830Z,9.30
2022-07-26T00:17:42.761Z,9.20
2022-07-26T00:18:42.753Z,9.30
2022-07-26T00:19:42.751Z,9.50
2022-07-26T00:20:42.709Z,9.30
2022-07-26T00:21:42.709Z,9.70
2022-07-26T00:22:42.700Z,8.90
2022-07-26T00:23:42.696Z,9.90
2022-07-26T00:24:42.671Z,9.50
2022-07-26T00:25:42.731Z,9.70
2022-07-26T00:26:42.641Z,9.40
2022-07-26T00:27:42.641Z,9.80
2022-07-26T00:28:42.631Z,9.40
2022-07-26T00:29:42.611Z,9.70
2022-07-26T00:30:42.593Z,9.60
2022-07-26T00:31:42.677Z,9.70
2022-07-26T00:32:42.562Z,9.60
2022-07-26T00:33:42.581Z,9.60
2022-07-26T00:34:42.559Z,9.40
2022-07-26T00:35:42.532Z,8.80
2022-07-26T00:36:42.512Z,9.20
2022-07-26T00:37:42.525Z,8.90
2022-07-26T00:38:42.491Z,9.20
2022-07-26T00:39:42.472Z,9.10
2022-07-26T00:40:42.466Z,8.90
2022-07-26T00:41:42.465Z,9.20
2022-07-26T00:42:42.434Z,9.20
2022-07-26T00:43:42.434Z,9.60
2022-07-26T00:44:42.408Z,9.40
2022-07-26T00:45:42.459Z,9.50
2022-07-26T00:46:42.454Z,9.80
2022-07-26T00:47:42.383Z,9.20
2022-07-26T00:48:42.419Z,9.20
2022-07-26T00:49:42.344Z,9.00
2022-07-26T00:50:42.331Z,9.30
2022-07-26T00:51:42.328Z,9.40
2022-07-26T00:52:42.303Z,8.80
2022-07-26T00:53:42.383Z,8.80
2022-07-26T00:54:42.275Z,9.10
2022-07-26T00:55:42.274Z,9.50
2022-07-26T00:56:42.264Z,9.40
2022-07-26T00:57:42.266Z,9.20
2022-07-26T00:58:49.250Z,9.50
2022-07-26T00:59:42.230Z,9.40
2022-07-26T01:00:42.207Z,9.10
2022-07-26T01:01:42.341Z,9.00
2022-07-26T01:02:42.254Z,9.10
2022-07-26T01:03:42.200Z,8.90
2022-07-26T01:04:42.149Z,9.80
2022-07-26T01:05:42.139Z,9.70
2022-07-26T01:06:42.132Z,9.50
2022-07-26T01:07:42.111Z,10.30
2022-07-26T01:08:42.090Z,9.50
2022-07-26T01:09:42.102Z,10.00
2022-07-26T01:10:42.082Z,9.60
2022-07-26T01:11:42.075Z,10.10
2022-07-26T01:12:42.061Z,9.70
2022-07-26T01:13:42.050Z,9.70
2022-07-26T01:14:42.023Z,9.60
2022-07-26T01:15:42.153Z,9.80
2022-07-26T01:16:42.010Z,10.20
2022-07-26T01:17:41.995Z,9.70
2022-07-26T01:18:41.994Z,9.90
2022-07-26T01:19:41.982Z,10.40
2022-07-26T01:20:41.941Z,9.90
2022-07-26T01:21:41.971Z,9.90
2022-07-26T01:22:41.921Z,10.00
2022-07-26T01:23:41.916Z,9.60
2022-07-26T01:24:41.976Z,9.80
2022-07-26T01:25:43.244Z,10.10
2022-07-26T01:26:41.873Z,9.90
2022-07-26T01:27:41.872Z,10.20
2022-07-26T01:28:41.842Z,10.00
2022-07-26T01:29:41.834Z,10.10
2022-07-26T01:30:41.814Z,10.30
2022-07-26T01:31:41.887Z,10.10
2022-07-26T01:32:41.783Z,10.80
2022-07-26T01:33:41.785Z,10.20
2022-07-26T01:34:41.765Z,10.10
2022-07-26T01:35:41.804Z,9.80
2022-07-26T01:36:41.745Z,9.90
2022-07-26T01:37:41.751Z,9.60
2022-07-26T01:38:41.714Z,9.90
2022-07-26T01:39:41.706Z,10.00
2022-07-26T01:40:41.697Z,9.90
2022-07-26T01:41:41.697Z,9.80
2022-07-26T01:42:41.671Z,10.00
2022-07-26T01:43:41.674Z,9.50
2022-07-26T01:44:41.642Z,10.20
2022-07-26T01:45:41.679Z,10.00
2022-07-26T01:46:41.612Z,9.90
2022-07-26T01:47:41.606Z,9.60
2022-07-26T01:48:41.680Z,9.90
2022-07-26T01:49:41.585Z,9.50
2022-07-26T01:50:41.566Z,9.90
2022-07-26T01:51:41.565Z,10.20
2022-07-26T01:52:41.536Z,10.30
2022-07-26T01:53:41.544Z,10.40
2022-07-26T01:54:41.526Z,10.20
2022-07-26T01:55:41.525Z,10.00
2022-07-26T01:56:41.516Z,9.60
2022-07-26T01:57:41.508Z,10.20
2022-07-26T01:58:41.446Z,10.40
2022-07-26T01:59:41.463Z,10.10
2022-07-26T02:00:41.426Z,10.00
2022-07-26T02:01:41.495Z,10.30
2022-07-26T02:02:41.503Z,10.20
2022-07-26T02:03:41.436Z,10.00
2022-07-26T02:04:41.377Z,9.70
2022-07-26T02:05:41.366Z,9.80
2022-07-26T02:06:41.358Z,9.60
2022-07-26T02:07:43.855Z,9.90
2022-07-26T02:08:41.359Z,9.80
2022-07-26T02:09:41.342Z,10.10
2022-07-26T02:10:41.299Z,10.00
2022-07-26T02:11:41.309Z,10.30
2022-07-26T02:12:41.282Z,10.00
2022-07-26T02:13:41.302Z,9.80
2022-07-26T02:14:41.242Z,10.10
2022-07-26T02:15:41.286Z,9.70
2022-07-26T02:16:41.219Z,9.50
2022-07-26T02:17:41.209Z,9.20
2022-07-26T02:18:41.190Z,9.10
2022-07-26T02:19:41.196Z,9.20
2022-07-26T02:20:41.170Z,9.20
2022-07-26T02:21:41.162Z,9.50
2022-07-26T02:22:41.158Z,9.30
2022-07-26T02:23:41.547Z,9.30
2022-07-26T02:24:41.144Z,8.90
2022-07-26T02:25:41.141Z,9.30
2022-07-26T02:26:41.089Z,9.40
2022-07-26T02:27:41.081Z,9.30
2022-07-26T02:28:41.071Z,9.60
2022-07-26T02:29:41.049Z,9.80
2022-07-26T02:30:41.062Z,9.40
2022-07-26T02:31:41.107Z,9.30
2022-07-26T02:32:42.038Z,9.90
2022-07-26T02:33:41.022Z,9.50
2022-07-26T02:34:41.001Z,9.10
2022-07-26T02:35:41.000Z,9.10
2022-07-26T02:36:40.962Z,9.40
2022-07-26T02:37:43.517Z,9.70
2022-07-26T02:38:40.931Z,9.30
2022-07-26T02:39:40.940Z,9.30
2022-07-26T02:40:40.911Z,9.20
2022-07-26T02:41:40.913Z,9.50
2022-07-26T02:42:40.882Z,9.00
2022-07-26T02:43:40.892Z,8.90
2022-07-26T02:44:40.867Z,9.30
2022-07-26T02:45:40.872Z,9.10
2022-07-26T02:46:40.930Z,9.10
2022-07-26T02:47:40.850Z,8.90
2022-07-26T02:48:40.839Z,9.10
2022-07-26T02:49:40.834Z,8.60
2022-07-26T02:50:40.796Z,9.10
2022-07-26T02:51:40.806Z,9.20
2022-07-26T02:52:40.774Z,9.00
2022-07-26T02:53:40.785Z,9.30
2022-07-26T02:54:40.735Z,8.80
2022-07-26T02:55:40.723Z,8.80
2022-07-26T02:56:40.703Z,8.60
2022-07-26T02:57:46.410Z,9.10
2022-07-26T02:58:41.681Z,9.00
2022-07-26T02:59:40.663Z,9.00
2022-07-26T03:00:40.654Z,9.00
2022-07-26T03:01:40.711Z,8.50
2022-07-26T03:02:40.690Z,8.90
2022-07-26T03:03:40.636Z,8.50
2022-07-26T03:04:40.605Z,9.50
2022-07-26T03:05:40.597Z,9.20
2022-07-26T03:06:40.577Z,9.50
2022-07-26T03:07:40.598Z,9.20
2022-07-26T03:08:40.566Z,8.50
2022-07-26T03:09:40.547Z,9.40
2022-07-26T03:10:40.525Z,8.90
2022-07-26T03:11:40.515Z,9.20
2022-07-26T03:12:40.511Z,9.20
2022-07-26T03:13:40.486Z,8.90
2022-07-26T03:14:40.483Z,9.10
2022-07-26T03:15:40.523Z,8.90
2022-07-26T03:16:40.489Z,9.10
2022-07-26T03:17:40.458Z,8.90
2022-07-26T03:18:40.430Z,9.30
2022-07-26T03:19:40.415Z,8.80
2022-07-26T03:20:40.418Z,9.20
2022-07-26T03:21:40.399Z,9.40
2022-07-26T03:22:40.379Z,9.40
2022-07-26T03:23:40.378Z,9.30
2022-07-26T03:24:40.348Z,9.30
2022-07-26T03:25:40.339Z,9.50
2022-07-26T03:26:40.367Z,9.20
2022-07-26T03:27:40.307Z,9.50
2022-07-26T03:28:40.287Z,9.10
2022-07-26T03:29:40.288Z,9.70
2022-07-26T03:30:40.323Z,9.50
2022-07-26T03:31:40.308Z,10.10
2022-07-26T03:32:40.269Z,10.20
2022-07-26T03:33:40.282Z,9.70
2022-07-26T03:34:40.208Z,9.70
2022-07-26T03:35:40.209Z,9.20
2022-07-26T03:36:40.186Z,9.90
2022-07-26T03:37:45.952Z,9.90
2022-07-26T03:38:41.196Z,9.70
2022-07-26T03:39:40.159Z,10.00
2022-07-26T03:40:40.136Z,9.90
2022-07-26T03:41:40.149Z,9.80
2022-07-26T03:42:40.144Z,9.40
2022-07-26T03:43:40.171Z,9.50
2022-07-26T03:44:40.110Z,9.60
2022-07-26T03:45:40.082Z,10.20
2022-07-26T03:46:40.139Z,10.20
2022-07-26T03:47:40.059Z,9.10
2022-07-26T03:48:40.110Z,10.10
2022-07-26T03:49:40.041Z,9.70
2022-07-26T03:50:40.018Z,9.80
2022-07-26T03:51:40.010Z,9.90
2022-07-26T03:52:40.031Z,9.80
2022-07-26T03:53:39.971Z,9.70
2022-07-26T03:54:39.951Z,9.90
2022-07-26T03:55:39.944Z,10.00
2022-07-26T03:56:39.936Z,10.20
2022-07-26T03:57:39.941Z,10.60
2022-07-26T03:58:39.952Z,9.70
2022-07-26T03:59:39.905Z,9.90
2022-07-26T04:00:39.892Z,10.20
2022-07-26T04:01:39.930Z,10.00
2022-07-26T04:02:39.922Z,10.00
2022-07-26T04:03:42.176Z,10.10
2022-07-26T04:04:40.859Z,10.20
2022-07-26T04:05:39.823Z,10.40
2022-07-26T04:06:39.812Z,10.80
2022-07-26T04:07:39.804Z,9.40
2022-07-26T04:08:39.775Z,10.20
2022-07-26T04:09:39.770Z,9.80
2022-07-26T04:10:39.773Z,10.30
2022-07-26T04:11:39.753Z,10.00
2022-07-26T04:12:39.731Z,10.60
2022-07-26T04:13:39.715Z,9.90
2022-07-26T04:14:39.704Z,10.20
2022-07-26T04:15:39.685Z,9.90
2022-07-26T04:16:43.396Z,10.50
2022-07-26T04:17:39.673Z,9.90
2022-07-26T04:18:39.698Z,10.20
2022-07-26T04:19:39.939Z,10.10
2022-07-26T04:20:39.635Z,10.10
2022-07-26T04:21:39.656Z,10.70
2022-07-26T04:22:39.613Z,9.60
2022-07-26T04:23:39.603Z,9.60
2022-07-26T04:24:39.576Z,9.00
2022-07-26T04:25:41.371Z,10.00
2022-07-26T04:26:39.559Z,10.00
2022-07-26T04:27:39.549Z,9.10
2022-07-26T04:28:39.522Z,9.80
2022-07-26T04:29:39.527Z,9.50
2022-07-26T04:30:39.528Z,9.40
2022-07-26T04:31:39.495Z,9.80
2022-07-26T04:32:39.487Z,10.00
2022-07-26T04:33:39.462Z,9.60
2022-07-26T04:34:39.457Z,9.40
2022-07-26T04:35:39.427Z,9.00
2022-07-26T04:36:40.342Z,9.10
2022-07-26T04:37:39.481Z,9.00
2022-07-26T04:38:39.406Z,8.90
2022-07-26T04:39:39.384Z,10.00
2022-07-26T04:40:40.977Z,9.80
2022-07-26T04:41:39.358Z,9.60
2022-07-26T04:42:39.339Z,9.10
2022-07-26T04:43:39.326Z,8.50
2022-07-26T04:44:39.334Z,8.60
2022-07-26T04:45:39.321Z,9.30
2022-07-26T04:46:39.345Z,9.30
2022-07-26T04:47:40.292Z,8.80
2022-07-26T04:48:39.337Z,9.40
2022-07-26T04:49:39.259Z,9.70
2022-07-26T04:50:39.260Z,9.10
2022-07-26T04:51:39.239Z,9.50
2022-07-26T04:52:39.219Z,9.20
2022-07-26T04:53:39.210Z,8.60
2022-07-26T04:54:39.189Z,9.10
2022-07-26T04:55:39.177Z,8.90
2022-07-26T04:56:39.168Z,8.80
2022-07-26T04:57:39.161Z,8.90
2022-07-26T04:58:39.174Z,9.00
2022-07-26T04:59:39.120Z,8.70
2022-07-26T05:01:02.754Z,8.90
2022-07-26T05:01:40.127Z,9.20
2022-07-26T05:02:39.165Z,8.80
2022-07-26T05:03:39.084Z,8.80
2022-07-26T05:04:39.081Z,9.30
2022-07-26T05:05:39.069Z,9.10
2022-07-26T05:06:39.043Z,8.50
2022-07-26T05:07:39.029Z,7.90
2022-07-26T05:08:39.046Z,8.20
2022-07-26T05:09:39.001Z,7.90
2022-07-26T05:10:38.989Z,8.50
2022-07-26T05:11:38.998Z,7.80
2022-07-26T05:12:38.954Z,8.30
2022-07-26T05:13:38.941Z,8.20
2022-07-26T05:14:39.003Z,8.50
2022-07-26T05:15:38.912Z,8.30
2022-07-26T05:16:39.281Z,8.10
2022-07-26T05:17:39.902Z,7.20
2022-07-26T05:18:48.770Z,8.00
2022-07-26T05:19:39.872Z,7.50
2022-07-26T05:20:38.854Z,8.00
2022-07-26T05:21:38.870Z,7.50
2022-07-26T05:22:38.832Z,7.30
2022-07-26T05:23:38.833Z,7.50
2022-07-26T05:24:38.809Z,7.80
2022-07-26T05:25:38.819Z,8.10
2022-07-26T05:26:38.772Z,7.70
2022-07-26T05:27:38.773Z,7.50
2022-07-26T05:28:38.756Z,7.50
2022-07-26T05:29:38.741Z,7.30
2022-07-26T05:30:38.798Z,7.40
2022-07-26T05:31:38.732Z,7.80
2022-07-26T05:32:38.705Z,7.70
2022-07-26T05:33:38.743Z,7.60
2022-07-26T05:34:38.684Z,7.80
2022-07-26T05:35:38.663Z,7.10
2022-07-26T05:36:38.644Z,7.10
2022-07-26T05:37:38.684Z,7.30
2022-07-26T05:38:38.636Z,7.50
2022-07-26T05:39:38.612Z,7.30
2022-07-26T05:40:38.593Z,7.10
2022-07-26T05:41:38.594Z,6.70
2022-07-26T05:42:38.629Z,7.00
2022-07-26T05:43:40.766Z,6.80
2022-07-26T05:44:42.462Z,7.30
2022-07-26T05:45:38.571Z,6.80
2022-07-26T05:46:38.665Z,6.60
2022-07-26T05:47:38.536Z,6.90
2022-07-26T05:48:38.572Z,7.20
2022-07-26T05:49:40.298Z,7.00
2022-07-26T05:50:38.464Z,7.10
2022-07-26T05:51:38.446Z,6.30
2022-07-26T05:52:38.444Z,7.20
2022-07-26T05:53:38.423Z,7.70
2022-07-26T05:54:38.416Z,7.20
2022-07-26T05:55:38.406Z,6.40
2022-07-26T05:56:38.393Z,6.40
2022-07-26T05:57:38.364Z,6.90
2022-07-26T05:58:38.368Z,6.80
2022-07-26T05:59:38.359Z,6.30
2022-07-26T06:00:38.348Z,6.70
2022-07-26T06:01:38.348Z,6.20
2022-07-26T06:02:38.370Z,6.90
2022-07-26T06:03:38.299Z,7.00
2022-07-26T06:04:38.365Z,6.80
2022-07-26T06:05:38.268Z,6.00
2022-07-26T06:06:38.264Z,6.50
2022-07-26T06:07:38.247Z,6.10
2022-07-26T06:08:38.250Z,6.40
2022-07-26T06:09:38.216Z,6.50
2022-07-26T06:10:38.208Z,6.10
2022-07-26T06:11:38.199Z,6.10
2022-07-26T06:12:38.197Z,6.00
2022-07-26T06:13:38.167Z,5.80
2022-07-26T06:14:38.179Z,5.90
2022-07-26T06:15:38.141Z,6.10
2022-07-26T06:16:38.195Z,6.20
2022-07-26T06:17:38.134Z,5.90
2022-07-26T06:18:38.110Z,5.70
2022-07-26T06:19:38.092Z,5.70
2022-07-26T06:20:38.091Z,5.60
2022-07-26T06:21:38.071Z,5.40
2022-07-26T06:22:38.059Z,5.80
2022-07-26T06:23:38.031Z,5.50
2022-07-26T06:24:38.070Z,5.50
2022-07-26T06:25:38.051Z,5.30
2022-07-26T06:26:38.021Z,5.80
2022-07-26T06:27:38.000Z,5.60
2022-07-26T06:28:37.975Z,5.20
2022-07-26T06:29:37.961Z,5.60
2022-07-26T06:30:37.952Z,5.70
2022-07-26T06:31:37.973Z,5.40
2022-07-26T06:32:37.943Z,5.80
2022-07-26T06:33:37.906Z,5.70
2022-07-26T06:34:37.905Z,5.70
2022-07-26T06:35:37.883Z,5.50
2022-07-26T06:36:37.876Z,5.50
2022-07-26T06:37:37.854Z,5.60
2022-07-26T06:38:37.861Z,5.10
2022-07-26T06:39:37.836Z,5.40
2022-07-26T06:40:37.833Z,5.10
2022-07-26T06:41:37.813Z,5.10
2022-07-26T06:42:37.813Z,5.00
2022-07-26T06:43:37.784Z,5.20
2022-07-26T06:44:37.792Z,5.20
2022-07-26T06:45:37.781Z,4.90
2022-07-26T06:46:37.743Z,4.90
2022-07-26T06:47:37.730Z,4.40
2022-07-26T06:48:37.750Z,4.80
2022-07-26T06:49:37.708Z,5.10
2022-07-26T06:50:37.704Z,4.60
2022-07-26T06:51:37.683Z,4.30
2022-07-26T06:52:37.663Z,4.60
2022-07-26T06:53:37.644Z,4.70
2022-07-26T06:54:37.644Z,4.90
2022-07-26T06:55:37.635Z,4.60
2022-07-26T06:56:37.625Z,4.50
2022-07-26T06:57:44.722Z,4.60
2022-07-26T06:59:48.800Z,3.80
2022-07-26T07:00:48.804Z,3.80
2022-07-26T07:01:55.551Z,3.90
2022-07-26T07:02:49.759Z,3.80
2022-07-26T07:03:48.744Z,3.70
2022-07-26T07:04:48.793Z,3.60
2022-07-26T07:05:50.263Z,3.80
2022-07-26T07:06:49.605Z,3.80
2022-07-26T07:07:48.783Z,3.70
2022-07-26T07:08:48.694Z,4.00
2022-07-26T07:09:48.682Z,3.70
2022-07-26T07:10:48.644Z,3.80
2022-07-26T07:11:48.635Z,3.40
2022-07-26T07:12:48.613Z,3.70
2022-07-26T07:13:48.662Z,3.70
2022-07-26T07:14:48.594Z,3.60
2022-07-26T07:15:48.604Z,3.50
2022-07-26T07:16:48.634Z,3.40
2022-07-26T07:17:48.572Z,3.60
2022-07-26T07:18:48.544Z,3.40
2022-07-26T07:19:48.544Z,3.60
2022-07-26T07:20:48.515Z,3.60
2022-07-26T07:21:48.505Z,3.60
2022-07-26T07:22:48.490Z,3.60
2022-07-26T07:23:48.506Z,3.50
2022-07-26T07:24:48.573Z,3.30
2022-07-26T07:25:48.872Z,3.20
2022-07-26T07:26:48.447Z,3.30
2022-07-26T07:27:48.438Z,3.30
2022-07-26T07:28:48.676Z,3.20
2022-07-26T07:29:48.418Z,3.30
2022-07-26T07:30:48.412Z,2.90
2022-07-26T07:31:49.640Z,3.00
2022-07-26T07:32:48.364Z,3.30
2022-07-26T07:33:53.439Z,3.40
2022-07-26T07:34:49.352Z,2.90
2022-07-26T07:35:48.358Z,3.00
2022-07-26T07:36:48.317Z,3.00
2022-07-26T07:37:53.532Z,3.10
2022-07-26T07:38:49.353Z,3.20
2022-07-26T07:39:50.066Z,3.40
2022-07-26T07:40:48.266Z,3.10
2022-07-26T07:41:48.257Z,3.40
2022-07-26T07:42:48.242Z,2.90
2022-07-26T07:43:48.249Z,3.00
2022-07-26T07:44:48.208Z,3.00
2022-07-26T07:45:48.978Z,2.80
2022-07-26T07:46:48.260Z,2.80
2022-07-26T07:47:48.173Z,3.20
2022-07-26T07:48:48.235Z,3.00
2022-07-26T07:49:48.138Z,3.10
2022-07-26T07:50:48.146Z,2.80
2022-07-26T07:51:48.121Z,3.00
2022-07-26T07:52:48.130Z,2.90
2022-07-26T07:53:57.350Z,2.80
2022-07-26T07:54:49.092Z,2.80
2022-07-26T07:55:48.073Z,2.90
2022-07-26T07:56:48.056Z,2.70
2022-07-26T07:57:48.051Z,2.70
2022-07-26T07:58:48.049Z,2.60
2022-07-26T07:59:48.032Z,2.60
2022-07-26T08:00:48.455Z,2.80
2022-07-26T08:01:48.049Z,2.60
2022-07-26T08:02:47.985Z,2.90
2022-07-26T08:03:50.446Z,2.90
2022-07-26T08:04:48.069Z,2.70
2022-07-26T08:05:49.926Z,2.80
2022-07-26T08:06:50.968Z,2.70
2022-07-26T08:07:47.923Z,2.50
2022-07-26T08:08:48.445Z,2.60
2022-07-26T08:09:47.892Z,2.60
2022-07-26T08:10:51.873Z,2.40
2022-07-26T08:11:50.940Z,2.80
2022-07-26T08:12:51.177Z,2.50
2022-07-26T08:13:48.262Z,2.50
2022-07-26T08:14:47.833Z,2.60
2022-07-26T08:15:47.822Z,2.50
2022-07-26T08:16:47.868Z,2.60
2022-07-26T08:17:53.777Z,2.70
2022-07-26T08:18:56.835Z,2.40
2022-07-26T08:19:48.794Z,2.60
2022-07-26T08:20:47.746Z,2.60
2022-07-26T08:21:47.747Z,2.50
2022-07-26T08:22:47.726Z,2.40
2022-07-26T08:23:47.725Z,2.30
2022-07-26T08:24:47.742Z,2.70
2022-07-26T08:25:56.436Z,2.10
2022-07-26T08:26:48.668Z,2.30
2022-07-26T08:28:02.610Z,2.00
2022-07-26T08:29:09.422Z,2.00
2022-07-26T08:29:48.646Z,2.20
2022-07-26T08:30:47.661Z,2.20
2022-07-26T08:31:47.686Z,2.40
2022-07-26T08:32:47.596Z,2.20
2022-07-26T08:33:47.627Z,2.00
2022-07-26T08:34:47.568Z,2.40
2022-07-26T08:35:47.597Z,2.00
2022-07-26T08:37:07.224Z,2.00
2022-07-26T08:37:48.531Z,2.10
2022-07-26T08:38:48.004Z,2.00
2022-07-26T08:39:47.505Z,1.90
2022-07-26T08:40:47.476Z,1.70
2022-07-26T08:41:47.477Z,1.80
2022-07-26T08:42:52.261Z,1.90
2022-07-26T08:43:53.129Z,1.70
2022-07-26T08:44:48.430Z,1.90
2022-07-26T08:45:47.410Z,1.60
2022-07-26T08:46:47.498Z,1.80
2022-07-26T08:48:15.099Z,1.70
2022-07-26T08:48:48.426Z,1.90
2022-07-26T08:49:47.383Z,1.80
2022-07-26T08:50:47.380Z,2.00
2022-07-26T08:51:47.351Z,2.20
2022-07-26T08:52:47.331Z,1.90
2022-07-26T08:53:47.320Z,2.00
2022-07-26T08:54:47.321Z,2.20
2022-07-26T08:56:06.334Z,2.10
2022-07-26T08:56:48.270Z,2.20
2022-07-26T08:57:47.261Z,2.00
2022-07-26T08:58:47.248Z,1.90
2022-07-26T08:59:47.250Z,2.10
2022-07-26T09:00:47.297Z,2.10
2022-07-26T09:01:47.228Z,2.00
2022-07-26T09:02:47.200Z,2.30
2022-07-26T09:03:47.214Z,2.20
2022-07-26T09:04:47.274Z,2.00
2022-07-26T09:05:47.158Z,2.10
2022-07-26T09:06:47.204Z,2.10
2022-07-26T09:07:47.143Z,2.00
2022-07-26T09:08:47.124Z,2.20
2022-07-26T09:09:47.145Z,2.00
2022-07-26T09:10:47.105Z,2.30
2022-07-26T09:11:47.094Z,2.10
2022-07-26T09:12:47.088Z,1.90
2022-07-26T09:13:47.101Z,2.10
2022-07-26T09:14:47.098Z,2.00
2022-07-26T09:15:47.130Z,2.20
2022-07-26T09:16:47.071Z,2.30
2022-07-26T09:17:47.009Z,2.00
2022-07-26T09:18:47.013Z,2.20
2022-07-26T09:19:46.977Z,1.90
2022-07-26T09:20:47.008Z,1.90
2022-07-26T09:21:46.955Z,1.70
2022-07-26T09:22:46.942Z,1.90
2022-07-26T09:23:46.933Z,1.80
2022-07-26T09:24:46.918Z,1.90
2022-07-26T09:25:46.896Z,1.80
2022-07-26T09:26:46.916Z,1.80
2022-07-26T09:27:46.935Z,1.80
2022-07-26T09:28:46.863Z,1.80
2022-07-26T09:29:46.851Z,1.70
2022-07-26T09:30:46.845Z,1.90
2022-07-26T09:31:46.879Z,1.70
2022-07-26T09:32:46.796Z,1.70
2022-07-26T09:33:46.787Z,2.00
2022-07-26T09:34:52.587Z,1.80
2022-07-26T09:35:50.910Z,1.80
2022-07-26T09:36:46.756Z,1.70
2022-07-26T09:37:46.760Z,1.60
2022-07-26T09:38:46.731Z,1.70
2022-07-26T09:39:46.718Z,1.50
2022-07-26T09:40:49.621Z,1.60
2022-07-26T09:41:49.364Z,1.60
2022-07-26T09:42:47.697Z,1.40
2022-07-26T09:43:50.293Z,1.40
2022-07-26T09:44:47.994Z,1.40
2022-07-26T09:45:46.626Z,1.40
2022-07-26T09:46:46.696Z,1.40
2022-07-26T09:47:46.600Z,1.10
2022-07-26T09:49:09.435Z,1.20
2022-07-26T09:49:47.690Z,1.30
2022-07-26T09:50:46.563Z,1.30
2022-07-26T09:51:46.554Z,1.40
2022-07-26T09:52:46.556Z,1.20
2022-07-26T09:53:46.534Z,1.20
2022-07-26T09:54:46.613Z,1.00
2022-07-26T09:55:46.534Z,1.10
2022-07-26T09:56:46.494Z,1.20
2022-07-26T09:57:46.502Z,1.20
2022-07-26T09:58:46.470Z,1.30
2022-07-26T09:59:46.462Z,1.20
2022-07-26T10:00:46.439Z,1.30
2022-07-26T10:01:46.446Z,1.30
2022-07-26T10:02:46.456Z,1.20
2022-07-26T10:03:46.403Z,1.40
2022-07-26T10:04:46.404Z,1.30
2022-07-26T10:05:46.371Z,1.10
2022-07-26T10:06:46.367Z,1.10
2022-07-26T10:07:46.381Z,1.10
2022-07-26T10:08:46.341Z,1.10
2022-07-26T10:09:46.320Z,1.20
2022-07-26T10:10:46.320Z,1.10
2022-07-26T10:11:46.312Z,1.30
2022-07-26T10:12:46.318Z,1.40
2022-07-26T10:13:46.272Z,1.20
2022-07-26T10:14:46.351Z,1.30
2022-07-26T10:15:46.972Z,1.40
2022-07-26T10:16:46.251Z,1.20
2022-07-26T10:17:46.225Z,1.30
2022-07-26T10:18:46.205Z,1.20
2022-07-26T10:19:47.652Z,1.10
2022-07-26T10:20:46.205Z,1.10
2022-07-26T10:21:46.175Z,1.10
2022-07-26T10:22:46.197Z,1.10
2022-07-26T10:23:46.221Z,1.00
2022-07-26T10:24:46.125Z,1.20
2022-07-26T10:25:46.117Z,1.10
2022-07-26T10:26:46.105Z,1.10
2022-07-26T10:27:46.095Z,1.00
2022-07-26T10:28:46.084Z,1.00
2022-07-26T10:29:46.060Z,1.00
2022-07-26T10:30:46.047Z,1.10
2022-07-26T10:31:46.263Z,1.10
2022-07-26T10:32:46.026Z,1.00
2022-07-26T10:33:46.019Z,1.00
2022-07-26T10:34:46.068Z,1.20
2022-07-26T10:35:45.978Z,1.20
2022-07-26T10:36:45.981Z,1.10
2022-07-26T10:37:45.948Z,1.00
2022-07-26T10:38:45.966Z,1.10
2022-07-26T10:39:45.930Z,1.10
2022-07-26T10:40:45.998Z,1.20
2022-07-26T10:41:45.920Z,1.20
2022-07-26T10:42:45.929Z,1.20
2022-07-26T10:43:45.877Z,1.20
2022-07-26T10:44:45.859Z,1.20
2022-07-26T10:45:45.839Z,1.20
2022-07-26T10:46:45.906Z,1.20
2022-07-26T10:47:45.819Z,1.20
2022-07-26T10:48:45.872Z,1.00
2022-07-26T10:49:45.843Z,1.00
2022-07-26T10:50:45.804Z,1.00
2022-07-26T10:51:45.779Z,1.20
2022-07-26T10:52:45.763Z,1.10
2022-07-26T10:53:45.750Z,0.90
2022-07-26T10:54:45.741Z,1.10
2022-07-26T10:55:45.742Z,1.10
2022-07-26T10:56:45.709Z,1.10
2022-07-26T10:57:45.683Z,1.10
2022-07-26T10:58:45.680Z,0.90
2022-07-26T10:59:55.821Z,0.90
2022-07-26T11:00:46.652Z,0.90
2022-07-26T11:01:45.681Z,0.90
2022-07-26T11:02:45.644Z,0.90
2022-07-26T11:03:45.617Z,1.00
2022-07-26T11:04:45.606Z,1.10
2022-07-26T11:05:45.606Z,0.90
2022-07-26T11:06:46.603Z,1.00
2022-07-26T11:07:45.614Z,0.80
2022-07-26T11:08:48.084Z,0.90
2022-07-26T11:09:45.537Z,1.00
2022-07-26T11:10:45.528Z,0.90
2022-07-26T11:11:46.844Z,1.10
2022-07-26T11:12:45.525Z,1.10
2022-07-26T11:13:45.485Z,1.00
2022-07-26T11:14:48.450Z,1.00
2022-07-26T11:15:45.511Z,1.20
2022-07-26T11:16:45.461Z,1.10
2022-07-26T11:17:45.446Z,1.20
2022-07-26T11:18:45.438Z,1.20
2022-07-26T11:19:45.414Z,1.30
2022-07-26T11:20:45.416Z,1.00
2022-07-26T11:21:45.381Z,1.10
2022-07-26T11:22:45.378Z,1.00
2022-07-26T11:23:45.356Z,1.10
2022-07-26T11:24:45.363Z,1.20
2022-07-26T11:25:45.360Z,1.00
2022-07-26T11:26:45.320Z,1.00
2022-07-26T11:27:45.346Z,1.00
2022-07-26T11:28:45.308Z,1.00
2022-07-26T11:29:46.694Z,1.00
2022-07-26T11:30:45.299Z,1.00
2022-07-26T11:31:51.094Z,1.00
2022-07-26T11:32:46.278Z,1.00
2022-07-26T11:33:45.272Z,0.90
2022-07-26T11:34:45.334Z,0.90
2022-07-26T11:35:45.208Z,0.80
2022-07-26T11:36:45.189Z,1.00
2022-07-26T11:37:45.182Z,1.00
2022-07-26T11:38:45.158Z,0.80
2022-07-26T11:39:45.153Z,0.80
2022-07-26T11:40:45.151Z,0.80
2022-07-26T11:41:45.123Z,0.80
2022-07-26T11:42:45.110Z,0.80
2022-07-26T11:43:45.090Z,0.90
2022-07-26T11:44:45.095Z,0.90
2022-07-26T11:45:45.077Z,0.80
2022-07-26T11:46:45.130Z,0.90
2022-07-26T11:47:45.043Z,0.80
2022-07-26T11:48:45.079Z,0.80
2022-07-26T11:49:52.063Z,0.80
2022-07-26T11:50:46.010Z,0.80
2022-07-26T11:51:45.000Z,0.80
2022-07-26T11:52:45.007Z,0.90
2022-07-26T11:53:45.076Z,0.90
2022-07-26T11:54:44.963Z,0.90
2022-07-26T11:55:47.538Z,0.80
2022-07-26T11:56:44.937Z,0.90
2022-07-26T11:57:44.934Z,0.80
2022-07-26T11:58:44.901Z,0.90
2022-07-26T11:59:44.886Z,0.90
2022-07-26T12:00:44.876Z,0.80
2022-07-26T12:01:44.865Z,0.80
2022-07-26T12:02:45.875Z,0.80
2022-07-26T12:03:44.901Z,0.80
2022-07-26T12:04:45.033Z,0.80
2022-07-26T12:05:44.890Z,0.80
2022-07-26T12:06:44.797Z,0.80
2022-07-26T12:07:44.787Z,0.80
2022-07-26T12:08:44.795Z,0.80
2022-07-26T12:09:44.757Z,0.80
2022-07-26T12:10:44.746Z,0.80
2022-07-26T12:11:44.726Z,0.80
2022-07-26T12:12:44.731Z,0.90
2022-07-26T12:13:55.506Z,0.90
2022-07-26T12:14:45.717Z,0.90
2022-07-26T12:15:44.787Z,0.90
2022-07-26T12:16:44.669Z,0.90
2022-07-26T12:17:44.657Z,0.90
2022-07-26T12:18:44.638Z,0.90
2022-07-26T12:19:44.618Z,0.80
2022-07-26T12:20:44.617Z,1.00
2022-07-26T12:21:44.619Z,0.90
2022-07-26T12:22:44.587Z,0.80
2022-07-26T12:23:44.617Z,0.90
2022-07-26T12:24:44.579Z,0.90
2022-07-26T12:25:44.893Z,0.80
2022-07-26T12:26:44.562Z,0.80
2022-07-26T12:27:44.544Z,0.80
2022-07-26T12:28:44.541Z,0.80
2022-07-26T12:29:44.510Z,0.90
2022-07-26T12:30:44.534Z,0.80
2022-07-26T12:31:44.491Z,0.90
2022-07-26T12:32:44.482Z,1.00
2022-07-26T12:33:44.612Z,1.00
2022-07-26T12:34:44.438Z,1.00
2022-07-26T12:35:44.420Z,1.00
2022-07-26T12:36:44.421Z,1.10
2022-07-26T12:37:45.061Z,0.90
2022-07-26T12:38:47.736Z,1.10
2022-07-26T12:39:44.371Z,1.00
2022-07-26T12:40:44.470Z,1.10
2022-07-26T12:41:44.356Z,1.10
2022-07-26T12:42:44.355Z,1.10
2022-07-26T12:43:44.325Z,1.40
2022-07-26T12:44:45.305Z,1.30
2022-07-26T12:45:44.340Z,1.30
2022-07-26T12:46:44.366Z,1.20
2022-07-26T12:47:44.269Z,1.40
2022-07-26T12:48:44.302Z,1.30
2022-07-26T12:49:44.301Z,1.50
2022-07-26T12:50:44.232Z,1.40
2022-07-26T12:51:44.273Z,1.70
2022-07-26T12:52:44.203Z,2.00
2022-07-26T12:53:44.196Z,2.10
2022-07-26T12:54:44.183Z,2.20
2022-07-26T12:55:44.155Z,2.80
2022-07-26T12:56:44.147Z,3.20
2022-07-26T12:57:47.338Z,3.50
2022-07-26T12:58:44.127Z,4.10
2022-07-26T12:59:51.206Z,4.40
2022-07-26T13:00:44.110Z,4.90
2022-07-26T13:01:44.167Z,4.70
2022-07-26T13:02:44.077Z,5.30
2022-07-26T13:03:44.350Z,5.80
2022-07-26T13:04:44.103Z,5.80
2022-07-26T13:05:44.056Z,6.50
2022-07-26T13:06:44.027Z,6.90
2022-07-26T13:07:44.016Z,7.20
2022-07-26T13:08:44.007Z,7.80
2022-07-26T13:09:44.001Z,8.10
2022-07-26T13:10:43.968Z,8.40
2022-07-26T13:11:43.978Z,9.10
2022-07-26T13:12:43.968Z,9.00
2022-07-26T13:13:43.941Z,9.30
2022-07-26T13:14:43.909Z,9.60
2022-07-26T13:15:43.897Z,9.80
2022-07-26T13:16:43.943Z,9.80
2022-07-26T13:17:43.891Z,9.90